sensor_id;sensor_type;location;lat;lon;timestamp;P1;durP1;ratioP1;P2;durP2;ratioP2
49548;SDS011;35450;44.518;7.466;2022-09-01T00:00:37;3.58;;;0.90;;
49548;SDS011;35450;44.518;7.466;2022-09-01T00:03:44;1.60;;;0.85;;
49548;SDS011;35450;44.518;7.466;2022-09-01T00:06:55;6.07;;;1.20;;
49548;SDS011;35450;44.518;7.466;2022-09-01T00:09:59;2.58;;;1.20;;
49548;SDS011;35450;44.518;7.466;2022-09-01T00:13:04;7.35;;;1.30;;
49548;SDS011;35450;44.518;7.466;2022-09-01T00:16:09;3.22;;;1.23;;
49548;SDS011;35450;44.518;7.466;2022-09-01T00:19:16;5.43;;;1.63;;
49548;SDS011;35450;44.518;7.466;2022-09-01T00:22:20;2.45;;;1.65;;
49548;SDS011;35450;44.518;7.466;2022-09-01T00:25:24;1.35;;;1.13;;
49548;SDS011;35450;44.518;7.466;2022-09-01T00:28:31;8.77;;;1.00;;
49548;SDS011;35450;44.518;7.466;2022-09-01T00:31:36;1.00;;;0.88;;
49548;SDS011;35450;44.518;7.466;2022-09-01T00:34:41;2.60;;;1.10;;
49548;SDS011;35450;44.518;7.466;2022-09-01T00:37:45;2.15;;;1.50;;
49548;SDS011;35450;44.518;7.466;2022-09-01T00:40:50;3.40;;;1.10;;
49548;SDS011;35450;44.518;7.466;2022-09-01T00:43:55;5.03;;;1.67;;
49548;SDS011;35450;44.518;7.466;2022-09-01T00:47:01;2.78;;;1.10;;
49548;SDS011;35450;44.518;7.466;2022-09-01T00:50:06;5.80;;;1.10;;
49548;SDS011;35450;44.518;7.466;2022-09-01T00:53:11;2.65;;;1.23;;
49548;SDS011;35450;44.518;7.466;2022-09-01T00:56:15;2.50;;;1.30;;
49548;SDS011;35450;44.518;7.466;2022-09-01T00:59:20;6.75;;;1.38;;
49548;SDS011;35450;44.518;7.466;2022-09-01T01:02:26;3.05;;;1.45;;
49548;SDS011;35450;44.518;7.466;2022-09-01T01:05:31;2.58;;;1.50;;
49548;SDS011;35450;44.518;7.466;2022-09-01T01:08:39;5.13;;;1.35;;
49548;SDS011;35450;44.518;7.466;2022-09-01T01:11:46;2.20;;;1.75;;
49548;SDS011;35450;44.518;7.466;2022-09-01T01:14:50;2.35;;;1.35;;
49548;SDS011;35450;44.518;7.466;2022-09-01T01:17:55;2.17;;;1.60;;
49548;SDS011;35450;44.518;7.466;2022-09-01T01:21:06;3.67;;;1.27;;
49548;SDS011;35450;44.518;7.466;2022-09-01T01:24:35;4.68;;;1.80;;
49548;SDS011;35450;44.518;7.466;2022-09-01T01:27:39;3.53;;;1.40;;
49548;SDS011;35450;44.518;7.466;2022-09-01T01:30:46;4.25;;;2.22;;
49548;SDS011;35450;44.518;7.466;2022-09-01T01:33:55;3.78;;;1.77;;
49548;SDS011;35450;44.518;7.466;2022-09-01T01:37:00;4.07;;;1.58;;
49548;SDS011;35450;44.518;7.466;2022-09-01T01:40:05;2.58;;;1.38;;
49548;SDS011;35450;44.518;7.466;2022-09-01T01:43:17;4.10;;;1.90;;
49548;SDS011;35450;44.518;7.466;2022-09-01T01:46:26;2.53;;;1.60;;
49548;SDS011;35450;44.518;7.466;2022-09-01T01:49:30;2.60;;;1.52;;
49548;SDS011;35450;44.518;7.466;2022-09-01T01:52:35;2.97;;;2.28;;
49548;SDS011;35450;44.518;7.466;2022-09-01T01:55:39;4.28;;;1.40;;
49548;SDS011;35450;44.518;7.466;2022-09-01T01:58:44;5.65;;;1.90;;
49548;SDS011;35450;44.518;7.466;2022-09-01T02:01:49;2.13;;;1.70;;
49548;SDS011;35450;44.518;7.466;2022-09-01T02:04:53;1.50;;;1.40;;
49548;SDS011;35450;44.518;7.466;2022-09-01T02:07:59;5.88;;;1.80;;
49548;SDS011;35450;44.518;7.466;2022-09-01T02:11:12;2.95;;;1.50;;
49548;SDS011;35450;44.518;7.466;2022-09-01T02:14:19;6.00;;;1.80;;
49548;SDS011;35450;44.518;7.466;2022-09-01T02:17:23;2.60;;;1.60;;
49548;SDS011;35450;44.518;7.466;2022-09-01T02:20:29;3.88;;;1.90;;
49548;SDS011;35450;44.518;7.466;2022-09-01T02:23:36;1.55;;;1.45;;
49548;SDS011;35450;44.518;7.466;2022-09-01T02:26:42;5.38;;;1.92;;
49548;SDS011;35450;44.518;7.466;2022-09-01T02:29:50;2.30;;;1.90;;
49548;SDS011;35450;44.518;7.466;2022-09-01T02:32:58;7.88;;;2.95;;
49548;SDS011;35450;44.518;7.466;2022-09-01T02:36:04;2.67;;;1.75;;
49548;SDS011;35450;44.518;7.466;2022-09-01T02:39:16;3.28;;;1.85;;
49548;SDS011;35450;44.518;7.466;2022-09-01T02:42:23;7.80;;;1.70;;
49548;SDS011;35450;44.518;7.466;2022-09-01T02:45:32;6.30;;;2.30;;
49548;SDS011;35450;44.518;7.466;2022-09-01T02:48:38;6.35;;;1.83;;
49548;SDS011;35450;44.518;7.466;2022-09-01T02:51:48;2.75;;;2.50;;
49548;SDS011;35450;44.518;7.466;2022-09-01T02:55:05;2.97;;;2.00;;
49548;SDS011;35450;44.518;7.466;2022-09-01T02:58:11;4.20;;;2.15;;
49548;SDS011;35450;44.518;7.466;2022-09-01T03:01:24;3.63;;;2.00;;
49548;SDS011;35450;44.518;7.466;2022-09-01T03:04:31;9.32;;;2.85;;
49548;SDS011;35450;44.518;7.466;2022-09-01T03:07:38;4.78;;;2.70;;
49548;SDS011;35450;44.518;7.466;2022-09-01T03:10:44;4.15;;;3.63;;
49548;SDS011;35450;44.518;7.466;2022-09-01T03:13:49;5.93;;;3.20;;
49548;SDS011;35450;44.518;7.466;2022-09-01T03:16:55;5.63;;;3.55;;
49548;SDS011;35450;44.518;7.466;2022-09-01T03:20:00;3.50;;;2.63;;
49548;SDS011;35450;44.518;7.466;2022-09-01T03:23:05;4.65;;;2.65;;
49548;SDS011;35450;44.518;7.466;2022-09-01T03:26:11;4.10;;;2.05;;
49548;SDS011;35450;44.518;7.466;2022-09-01T03:29:17;2.33;;;1.83;;
49548;SDS011;35450;44.518;7.466;2022-09-01T03:32:21;2.45;;;1.50;;
49548;SDS011;35450;44.518;7.466;2022-09-01T03:35:26;2.08;;;1.80;;
49548;SDS011;35450;44.518;7.466;2022-09-01T03:38:31;8.10;;;1.77;;
49548;SDS011;35450;44.518;7.466;2022-09-01T03:41:37;5.03;;;1.95;;
49548;SDS011;35450;44.518;7.466;2022-09-01T03:44:41;3.60;;;1.67;;
49548;SDS011;35450;44.518;7.466;2022-09-01T03:47:46;2.75;;;1.80;;
49548;SDS011;35450;44.518;7.466;2022-09-01T03:50:50;8.30;;;1.90;;
49548;SDS011;35450;44.518;7.466;2022-09-01T03:53:54;8.95;;;2.40;;
49548;SDS011;35450;44.518;7.466;2022-09-01T03:57:00;3.95;;;2.08;;
49548;SDS011;35450;44.518;7.466;2022-09-01T04:00:04;4.72;;;2.22;;
49548;SDS011;35450;44.518;7.466;2022-09-01T04:03:17;6.35;;;2.05;;
49548;SDS011;35450;44.518;7.466;2022-09-01T04:06:24;5.32;;;2.08;;
49548;SDS011;35450;44.518;7.466;2022-09-01T04:09:31;7.50;;;2.00;;
49548;SDS011;35450;44.518;7.466;2022-09-01T04:12:37;6.00;;;2.00;;
49548;SDS011;35450;44.518;7.466;2022-09-01T04:15:41;2.85;;;1.83;;
49548;SDS011;35450;44.518;7.466;2022-09-01T04:18:45;13.48;;;2.47;;
49548;SDS011;35450;44.518;7.466;2022-09-01T04:21:53;5.30;;;1.80;;
49548;SDS011;35450;44.518;7.466;2022-09-01T04:24:59;2.17;;;1.98;;
49548;SDS011;35450;44.518;7.466;2022-09-01T04:28:04;4.10;;;2.92;;
49548;SDS011;35450;44.518;7.466;2022-09-01T04:31:20;8.05;;;2.40;;
49548;SDS011;35450;44.518;7.466;2022-09-01T04:34:27;3.25;;;2.45;;
49548;SDS011;35450;44.518;7.466;2022-09-01T04:37:31;3.47;;;3.17;;
49548;SDS011;35450;44.518;7.466;2022-09-01T04:40:39;9.95;;;4.28;;
49548;SDS011;35450;44.518;7.466;2022-09-01T04:43:43;7.20;;;4.28;;
49548;SDS011;35450;44.518;7.466;2022-09-01T04:46:50;7.75;;;5.40;;
49548;SDS011;35450;44.518;7.466;2022-09-01T04:49:55;10.45;;;6.80;;
49548;SDS011;35450;44.518;7.466;2022-09-01T04:53:02;11.63;;;7.18;;
49548;SDS011;35450;44.518;7.466;2022-09-01T04:56:11;9.30;;;7.28;;
49548;SDS011;35450;44.518;7.466;2022-09-01T04:59:21;13.32;;;7.38;;
49548;SDS011;35450;44.518;7.466;2022-09-01T05:02:33;10.48;;;7.18;;
49548;SDS011;35450;44.518;7.466;2022-09-01T05:05:38;10.38;;;7.47;;
49548;SDS011;35450;44.518;7.466;2022-09-01T05:08:48;8.77;;;7.65;;
49548;SDS011;35450;44.518;7.466;2022-09-01T05:12:11;18.42;;;7.38;;
49548;SDS011;35450;44.518;7.466;2022-09-01T05:15:16;9.77;;;7.45;;
49548;SDS011;35450;44.518;7.466;2022-09-01T05:18:21;7.60;;;6.80;;
49548;SDS011;35450;44.518;7.466;2022-09-01T05:21:30;11.25;;;6.75;;
49548;SDS011;35450;44.518;7.466;2022-09-01T05:24:36;8.75;;;5.63;;
49548;SDS011;35450;44.518;7.466;2022-09-01T05:27:42;5.97;;;5.38;;
49548;SDS011;35450;44.518;7.466;2022-09-01T05:33:57;3.88;;;3.30;;
49548;SDS011;35450;44.518;7.466;2022-09-01T05:37:02;4.78;;;2.50;;
49548;SDS011;35450;44.518;7.466;2022-09-01T05:40:09;2.35;;;1.88;;
49548;SDS011;35450;44.518;7.466;2022-09-01T05:43:18;2.13;;;1.92;;
49548;SDS011;35450;44.518;7.466;2022-09-01T05:46:23;2.58;;;2.20;;
49548;SDS011;35450;44.518;7.466;2022-09-01T05:49:29;7.15;;;3.35;;
49548;SDS011;35450;44.518;7.466;2022-09-01T05:52:37;9.50;;;3.85;;
49548;SDS011;35450;44.518;7.466;2022-09-01T05:55:42;7.43;;;3.03;;
49548;SDS011;35450;44.518;7.466;2022-09-01T05:58:46;3.28;;;2.67;;
49548;SDS011;35450;44.518;7.466;2022-09-01T06:01:51;8.90;;;3.30;;
49548;SDS011;35450;44.518;7.466;2022-09-01T06:04:56;4.90;;;3.10;;
49548;SDS011;35450;44.518;7.466;2022-09-01T06:08:07;5.32;;;3.78;;
49548;SDS011;35450;44.518;7.466;2022-09-01T06:11:12;7.05;;;3.42;;
49548;SDS011;35450;44.518;7.466;2022-09-01T06:14:20;5.63;;;3.17;;
49548;SDS011;35450;44.518;7.466;2022-09-01T06:17:25;6.63;;;2.95;;
49548;SDS011;35450;44.518;7.466;2022-09-01T06:20:39;6.05;;;3.67;;
49548;SDS011;35450;44.518;7.466;2022-09-01T06:23:46;9.23;;;3.10;;
49548;SDS011;35450;44.518;7.466;2022-09-01T06:26:56;6.78;;;4.13;;
49548;SDS011;35450;44.518;7.466;2022-09-01T06:30:02;5.90;;;3.53;;
49548;SDS011;35450;44.518;7.466;2022-09-01T06:33:12;9.88;;;3.40;;
49548;SDS011;35450;44.518;7.466;2022-09-01T06:36:20;4.75;;;2.80;;
49548;SDS011;35450;44.518;7.466;2022-09-01T06:39:25;15.50;;;3.13;;
49548;SDS011;35450;44.518;7.466;2022-09-01T06:42:30;3.35;;;2.90;;
49548;SDS011;35450;44.518;7.466;2022-09-01T06:45:38;4.63;;;3.05;;
49548;SDS011;35450;44.518;7.466;2022-09-01T06:48:45;4.90;;;3.10;;
49548;SDS011;35450;44.518;7.466;2022-09-01T06:51:51;11.27;;;3.00;;
49548;SDS011;35450;44.518;7.466;2022-09-01T06:55:00;7.82;;;3.15;;
49548;SDS011;35450;44.518;7.466;2022-09-01T06:58:05;5.45;;;3.30;;
49548;SDS011;35450;44.518;7.466;2022-09-01T07:01:10;8.25;;;3.78;;
49548;SDS011;35450;44.518;7.466;2022-09-01T07:04:17;5.28;;;3.50;;
49548;SDS011;35450;44.518;7.466;2022-09-01T07:07:30;4.18;;;3.78;;
49548;SDS011;35450;44.518;7.466;2022-09-01T07:11:19;5.38;;;4.05;;
49548;SDS011;35450;44.518;7.466;2022-09-01T07:14:28;4.00;;;3.58;;
49548;SDS011;35450;44.518;7.466;2022-09-01T07:17:33;5.13;;;3.38;;
49548;SDS011;35450;44.518;7.466;2022-09-01T07:20:39;6.90;;;3.53;;
49548;SDS011;35450;44.518;7.466;2022-09-01T07:23:44;6.28;;;3.72;;
49548;SDS011;35450;44.518;7.466;2022-09-01T07:26:49;10.32;;;3.38;;
49548;SDS011;35450;44.518;7.466;2022-09-01T07:29:54;4.32;;;3.40;;
49548;SDS011;35450;44.518;7.466;2022-09-01T07:32:59;6.78;;;2.90;;
49548;SDS011;35450;44.518;7.466;2022-09-01T07:36:04;12.45;;;4.45;;
49548;SDS011;35450;44.518;7.466;2022-09-01T07:39:11;7.03;;;3.22;;
49548;SDS011;35450;44.518;7.466;2022-09-01T07:42:18;16.75;;;4.68;;
49548;SDS011;35450;44.518;7.466;2022-09-01T07:45:43;27.98;;;14.55;;
49548;SDS011;35450;44.518;7.466;2022-09-01T07:48:53;21.02;;;9.35;;
49548;SDS011;35450;44.518;7.466;2022-09-01T07:51:58;36.58;;;7.32;;
49548;SDS011;35450;44.518;7.466;2022-09-01T07:55:04;10.85;;;4.82;;
49548;SDS011;35450;44.518;7.466;2022-09-01T07:58:11;9.38;;;4.30;;
49548;SDS011;35450;44.518;7.466;2022-09-01T08:01:19;6.63;;;3.22;;
49548;SDS011;35450;44.518;7.466;2022-09-01T08:04:27;8.98;;;4.47;;
49548;SDS011;35450;44.518;7.466;2022-09-01T08:07:31;13.10;;;4.43;;
49548;SDS011;35450;44.518;7.466;2022-09-01T08:10:37;7.20;;;4.13;;
49548;SDS011;35450;44.518;7.466;2022-09-01T08:13:43;14.00;;;4.38;;
49548;SDS011;35450;44.518;7.466;2022-09-01T08:16:47;5.90;;;5.30;;
49548;SDS011;35450;44.518;7.466;2022-09-01T08:19:53;10.48;;;5.18;;
49548;SDS011;35450;44.518;7.466;2022-09-01T08:23:11;7.85;;;7.00;;
49548;SDS011;35450;44.518;7.466;2022-09-01T08:26:17;15.98;;;8.52;;
49548;SDS011;35450;44.518;7.466;2022-09-01T08:29:23;13.48;;;8.75;;
49548;SDS011;35450;44.518;7.466;2022-09-01T08:32:28;14.18;;;9.75;;
49548;SDS011;35450;44.518;7.466;2022-09-01T08:35:33;14.88;;;9.70;;
49548;SDS011;35450;44.518;7.466;2022-09-01T08:38:38;11.57;;;8.95;;
49548;SDS011;35450;44.518;7.466;2022-09-01T08:41:44;10.38;;;8.43;;
49548;SDS011;35450;44.518;7.466;2022-09-01T08:48:25;11.82;;;10.40;;
49548;SDS011;35450;44.518;7.466;2022-09-01T08:51:38;11.35;;;8.43;;
49548;SDS011;35450;44.518;7.466;2022-09-01T08:54:59;9.68;;;7.80;;
49548;SDS011;35450;44.518;7.466;2022-09-01T08:58:24;10.98;;;7.15;;
49548;SDS011;35450;44.518;7.466;2022-09-01T09:05:22;5.85;;;4.22;;
49548;SDS011;35450;44.518;7.466;2022-09-01T09:12:03;5.70;;;4.28;;
49548;SDS011;35450;44.518;7.466;2022-09-01T09:15:21;8.63;;;5.60;;
49548;SDS011;35450;44.518;7.466;2022-09-01T09:18:31;11.55;;;6.15;;
49548;SDS011;35450;44.518;7.466;2022-09-01T09:21:58;12.23;;;8.27;;
49548;SDS011;35450;44.518;7.466;2022-09-01T09:25:08;6.90;;;5.97;;
49548;SDS011;35450;44.518;7.466;2022-09-01T09:28:15;9.40;;;7.03;;
49548;SDS011;35450;44.518;7.466;2022-09-01T09:31:32;13.82;;;7.65;;
49548;SDS011;35450;44.518;7.466;2022-09-01T09:34:41;10.98;;;8.60;;
49548;SDS011;35450;44.518;7.466;2022-09-01T09:37:45;10.32;;;7.80;;
49548;SDS011;35450;44.518;7.466;2022-09-01T09:41:03;8.82;;;7.32;;
49548;SDS011;35450;44.518;7.466;2022-09-01T09:47:36;8.60;;;7.22;;
49548;SDS011;35450;44.518;7.466;2022-09-01T09:50:42;14.27;;;7.75;;
49548;SDS011;35450;44.518;7.466;2022-09-01T09:53:46;9.73;;;7.95;;
49548;SDS011;35450;44.518;7.466;2022-09-01T10:00:26;10.45;;;7.88;;
49548;SDS011;35450;44.518;7.466;2022-09-01T10:03:33;9.85;;;8.32;;
49548;SDS011;35450;44.518;7.466;2022-09-01T10:06:44;12.88;;;9.57;;
49548;SDS011;35450;44.518;7.466;2022-09-01T10:09:48;10.80;;;8.80;;
49548;SDS011;35450;44.518;7.466;2022-09-01T10:12:53;12.30;;;8.38;;
49548;SDS011;35450;44.518;7.466;2022-09-01T10:15:59;9.20;;;8.40;;
49548;SDS011;35450;44.518;7.466;2022-09-01T10:19:12;9.02;;;8.13;;
49548;SDS011;35450;44.518;7.466;2022-09-01T10:22:17;10.63;;;8.20;;
49548;SDS011;35450;44.518;7.466;2022-09-01T10:25:24;8.65;;;5.85;;
49548;SDS011;35450;44.518;7.466;2022-09-01T10:28:30;7.60;;;6.90;;
49548;SDS011;35450;44.518;7.466;2022-09-01T10:31:36;9.30;;;7.57;;
49548;SDS011;35450;44.518;7.466;2022-09-01T10:34:40;11.30;;;8.35;;
49548;SDS011;35450;44.518;7.466;2022-09-01T10:37:46;11.35;;;8.95;;
49548;SDS011;35450;44.518;7.466;2022-09-01T10:40:52;8.45;;;7.30;;
49548;SDS011;35450;44.518;7.466;2022-09-01T10:44:10;8.82;;;7.32;;
49548;SDS011;35450;44.518;7.466;2022-09-01T10:47:26;7.10;;;6.03;;
49548;SDS011;35450;44.518;7.466;2022-09-01T10:50:35;7.82;;;7.03;;
49548;SDS011;35450;44.518;7.466;2022-09-01T10:53:40;10.98;;;6.32;;
49548;SDS011;35450;44.518;7.466;2022-09-01T10:56:50;7.90;;;6.33;;
49548;SDS011;35450;44.518;7.466;2022-09-01T11:00:13;6.57;;;5.47;;
49548;SDS011;35450;44.518;7.466;2022-09-01T11:03:47;7.47;;;6.22;;
49548;SDS011;35450;44.518;7.466;2022-09-01T11:06:54;6.85;;;4.95;;
49548;SDS011;35450;44.518;7.466;2022-09-01T11:23:44;8.57;;;4.68;;
49548;SDS011;35450;44.518;7.466;2022-09-01T11:26:49;7.15;;;4.13;;
49548;SDS011;35450;44.518;7.466;2022-09-01T11:29:54;6.88;;;3.85;;
49548;SDS011;35450;44.518;7.466;2022-09-01T11:33:19;13.55;;;4.05;;
49548;SDS011;35450;44.518;7.466;2022-09-01T11:36:35;6.45;;;3.60;;
49548;SDS011;35450;44.518;7.466;2022-09-01T11:39:42;4.88;;;4.25;;
49548;SDS011;35450;44.518;7.466;2022-09-01T11:42:53;6.32;;;5.22;;
49548;SDS011;35450;44.518;7.466;2022-09-01T11:46:15;12.20;;;6.65;;
49548;SDS011;35450;44.518;7.466;2022-09-01T11:52:39;12.20;;;4.88;;
49548;SDS011;35450;44.518;7.466;2022-09-01T11:55:44;8.57;;;5.55;;
49548;SDS011;35450;44.518;7.466;2022-09-01T11:58:53;7.63;;;4.45;;
49548;SDS011;35450;44.518;7.466;2022-09-01T12:01:57;9.02;;;4.88;;
49548;SDS011;35450;44.518;7.466;2022-09-01T12:05:03;4.93;;;4.03;;
49548;SDS011;35450;44.518;7.466;2022-09-01T12:08:37;6.40;;;5.30;;
49548;SDS011;35450;44.518;7.466;2022-09-01T12:11:42;7.32;;;6.22;;
49548;SDS011;35450;44.518;7.466;2022-09-01T12:14:54;9.85;;;5.63;;
49548;SDS011;35450;44.518;7.466;2022-09-01T12:18:10;9.70;;;5.75;;
49548;SDS011;35450;44.518;7.466;2022-09-01T12:21:20;10.07;;;8.25;;
49548;SDS011;35450;44.518;7.466;2022-09-01T12:24:27;10.77;;;8.35;;
49548;SDS011;35450;44.518;7.466;2022-09-01T12:27:36;8.35;;;6.28;;
49548;SDS011;35450;44.518;7.466;2022-09-01T12:30:41;9.13;;;6.18;;
49548;SDS011;35450;44.518;7.466;2022-09-01T12:33:47;13.80;;;6.45;;
49548;SDS011;35450;44.518;7.466;2022-09-01T12:37:05;11.63;;;8.02;;
49548;SDS011;35450;44.518;7.466;2022-09-01T12:40:22;8.32;;;7.13;;
49548;SDS011;35450;44.518;7.466;2022-09-01T12:43:38;9.57;;;8.55;;
49548;SDS011;35450;44.518;7.466;2022-09-01T12:46:44;14.45;;;11.15;;
49548;SDS011;35450;44.518;7.466;2022-09-01T12:49:48;12.63;;;10.32;;
49548;SDS011;35450;44.518;7.466;2022-09-01T12:52:53;11.07;;;9.32;;
49548;SDS011;35450;44.518;7.466;2022-09-01T12:56:03;11.60;;;9.93;;
49548;SDS011;35450;44.518;7.466;2022-09-01T12:59:27;10.23;;;9.15;;
49548;SDS011;35450;44.518;7.466;2022-09-01T13:02:36;9.95;;;8.90;;
49548;SDS011;35450;44.518;7.466;2022-09-01T13:05:41;9.68;;;8.68;;
49548;SDS011;35450;44.518;7.466;2022-09-01T13:08:52;10.00;;;7.82;;
49548;SDS011;35450;44.518;7.466;2022-09-01T13:12:09;9.35;;;7.40;;
49548;SDS011;35450;44.518;7.466;2022-09-01T13:15:18;11.52;;;8.73;;
49548;SDS011;35450;44.518;7.466;2022-09-01T13:18:23;11.63;;;8.82;;
49548;SDS011;35450;44.518;7.466;2022-09-01T13:21:29;6.53;;;5.60;;
49548;SDS011;35450;44.518;7.466;2022-09-01T13:24:34;6.72;;;6.13;;
49548;SDS011;35450;44.518;7.466;2022-09-01T13:27:38;7.45;;;6.75;;
49548;SDS011;35450;44.518;7.466;2022-09-01T13:30:47;10.30;;;6.45;;
49548;SDS011;35450;44.518;7.466;2022-09-01T13:33:56;8.68;;;5.72;;
49548;SDS011;35450;44.518;7.466;2022-09-01T13:37:01;5.68;;;4.55;;
49548;SDS011;35450;44.518;7.466;2022-09-01T13:40:05;7.25;;;4.55;;
49548;SDS011;35450;44.518;7.466;2022-09-01T13:43:13;8.15;;;6.18;;
49548;SDS011;35450;44.518;7.466;2022-09-01T13:46:17;7.78;;;6.22;;
49548;SDS011;35450;44.518;7.466;2022-09-01T13:49:22;6.22;;;5.30;;
49548;SDS011;35450;44.518;7.466;2022-09-01T13:52:25;8.40;;;6.25;;
49548;SDS011;35450;44.518;7.466;2022-09-01T13:55:31;8.75;;;5.40;;
49548;SDS011;35450;44.518;7.466;2022-09-01T13:58:38;8.38;;;6.80;;
49548;SDS011;35450;44.518;7.466;2022-09-01T14:01:43;5.22;;;4.72;;
49548;SDS011;35450;44.518;7.466;2022-09-01T14:04:48;6.32;;;4.63;;
49548;SDS011;35450;44.518;7.466;2022-09-01T14:07:52;6.57;;;4.75;;
49548;SDS011;35450;44.518;7.466;2022-09-01T14:10:57;4.72;;;4.05;;
49548;SDS011;35450;44.518;7.466;2022-09-01T14:14:02;9.70;;;5.30;;
49548;SDS011;35450;44.518;7.466;2022-09-01T14:17:06;10.82;;;3.78;;
49548;SDS011;35450;44.518;7.466;2022-09-01T14:20:15;4.45;;;4.05;;
49548;SDS011;35450;44.518;7.466;2022-09-01T14:23:22;6.18;;;3.47;;
49548;SDS011;35450;44.518;7.466;2022-09-01T14:26:26;11.10;;;4.47;;
49548;SDS011;35450;44.518;7.466;2022-09-01T14:29:30;5.22;;;4.72;;
49548;SDS011;35450;44.518;7.466;2022-09-01T14:32:34;5.28;;;4.78;;
49548;SDS011;35450;44.518;7.466;2022-09-01T14:35:39;5.68;;;2.80;;
49548;SDS011;35450;44.518;7.466;2022-09-01T14:38:45;5.25;;;2.75;;
49548;SDS011;35450;44.518;7.466;2022-09-01T14:41:49;6.80;;;3.33;;
49548;SDS011;35450;44.518;7.466;2022-09-01T14:44:54;5.82;;;3.42;;
49548;SDS011;35450;44.518;7.466;2022-09-01T14:47:59;3.70;;;3.10;;
49548;SDS011;35450;44.518;7.466;2022-09-01T14:51:03;8.02;;;4.43;;
49548;SDS011;35450;44.518;7.466;2022-09-01T14:54:08;6.13;;;2.90;;
49548;SDS011;35450;44.518;7.466;2022-09-01T14:57:12;4.25;;;3.17;;
49548;SDS011;35450;44.518;7.466;2022-09-01T15:00:17;3.33;;;2.95;;
49548;SDS011;35450;44.518;7.466;2022-09-01T15:03:22;7.30;;;3.38;;
49548;SDS011;35450;44.518;7.466;2022-09-01T15:06:28;6.63;;;3.25;;
49548;SDS011;35450;44.518;7.466;2022-09-01T15:09:33;7.28;;;4.43;;
49548;SDS011;35450;44.518;7.466;2022-09-01T15:12:38;4.22;;;3.72;;
49548;SDS011;35450;44.518;7.466;2022-09-01T15:15:42;4.97;;;4.05;;
49548;SDS011;35450;44.518;7.466;2022-09-01T15:18:46;5.32;;;4.03;;
49548;SDS011;35450;44.518;7.466;2022-09-01T15:21:51;9.38;;;4.07;;
49548;SDS011;35450;44.518;7.466;2022-09-01T15:24:55;5.70;;;3.97;;
49548;SDS011;35450;44.518;7.466;2022-09-01T15:27:59;18.13;;;4.22;;
49548;SDS011;35450;44.518;7.466;2022-09-01T15:31:03;9.65;;;5.00;;
49548;SDS011;35450;44.518;7.466;2022-09-01T15:34:08;7.00;;;3.70;;
49548;SDS011;35450;44.518;7.466;2022-09-01T15:37:13;6.90;;;3.28;;
49548;SDS011;35450;44.518;7.466;2022-09-01T15:40:17;6.18;;;4.00;;
49548;SDS011;35450;44.518;7.466;2022-09-01T15:43:22;5.05;;;4.05;;
49548;SDS011;35450;44.518;7.466;2022-09-01T15:46:26;5.50;;;3.38;;
49548;SDS011;35450;44.518;7.466;2022-09-01T15:49:34;5.85;;;3.88;;
49548;SDS011;35450;44.518;7.466;2022-09-01T15:53:12;6.13;;;3.72;;
49548;SDS011;35450;44.518;7.466;2022-09-01T15:56:11;4.97;;;3.53;;
49548;SDS011;35450;44.518;7.466;2022-09-01T15:59:15;6.63;;;3.30;;
49548;SDS011;35450;44.518;7.466;2022-09-01T16:02:19;4.30;;;3.08;;
49548;SDS011;35450;44.518;7.466;2022-09-01T16:05:29;5.50;;;3.15;;
49548;SDS011;35450;44.518;7.466;2022-09-01T16:08:36;4.32;;;3.28;;
49548;SDS011;35450;44.518;7.466;2022-09-01T16:11:41;7.20;;;3.42;;
49548;SDS011;35450;44.518;7.466;2022-09-01T16:14:45;3.13;;;2.83;;
49548;SDS011;35450;44.518;7.466;2022-09-01T16:24:12;7.20;;;4.30;;
49548;SDS011;35450;44.518;7.466;2022-09-01T16:27:18;5.88;;;3.30;;
49548;SDS011;35450;44.518;7.466;2022-09-01T16:30:27;4.30;;;3.72;;
49548;SDS011;35450;44.518;7.466;2022-09-01T16:33:32;9.00;;;3.40;;
49548;SDS011;35450;44.518;7.466;2022-09-01T16:44:08;6.43;;;3.45;;
49548;SDS011;35450;44.518;7.466;2022-09-01T16:47:49;3.92;;;2.78;;
49548;SDS011;35450;44.518;7.466;2022-09-01T16:54:28;4.15;;;2.70;;
49548;SDS011;35450;44.518;7.466;2022-09-01T16:57:40;4.65;;;2.60;;
49548;SDS011;35450;44.518;7.466;2022-09-01T17:00:57;6.53;;;3.15;;
49548;SDS011;35450;44.518;7.466;2022-09-01T17:04:24;4.90;;;2.60;;
49548;SDS011;35450;44.518;7.466;2022-09-01T17:07:42;2.78;;;2.45;;
49548;SDS011;35450;44.518;7.466;2022-09-01T17:10:54;4.95;;;2.70;;
49548;SDS011;35450;44.518;7.466;2022-09-01T17:14:03;2.60;;;2.40;;
49548;SDS011;35450;44.518;7.466;2022-09-01T17:17:13;2.60;;;2.40;;
49548;SDS011;35450;44.518;7.466;2022-09-01T17:20:23;5.57;;;3.05;;
49548;SDS011;35450;44.518;7.466;2022-09-01T17:23:34;4.35;;;2.88;;
49548;SDS011;35450;44.518;7.466;2022-09-01T17:26:43;5.57;;;3.28;;
49548;SDS011;35450;44.518;7.466;2022-09-01T17:29:51;7.63;;;3.20;;
49548;SDS011;35450;44.518;7.466;2022-09-01T17:40:08;3.22;;;2.78;;
49548;SDS011;35450;44.518;7.466;2022-09-01T17:50:18;5.53;;;3.28;;
49548;SDS011;35450;44.518;7.466;2022-09-01T17:56:56;4.25;;;2.95;;
49548;SDS011;35450;44.518;7.466;2022-09-01T18:00:19;7.80;;;3.22;;
49548;SDS011;35450;44.518;7.466;2022-09-01T18:10:11;6.05;;;5.05;;
49548;SDS011;35450;44.518;7.466;2022-09-01T18:13:19;5.88;;;3.13;;
49548;SDS011;35450;44.518;7.466;2022-09-01T18:16:35;4.85;;;3.42;;
49548;SDS011;35450;44.518;7.466;2022-09-01T18:20:08;11.10;;;4.38;;
49548;SDS011;35450;44.518;7.466;2022-09-01T18:23:21;6.85;;;3.65;;
49548;SDS011;35450;44.518;7.466;2022-09-01T18:26:27;5.22;;;2.83;;
49548;SDS011;35450;44.518;7.466;2022-09-01T18:29:37;4.00;;;2.75;;
49548;SDS011;35450;44.518;7.466;2022-09-01T18:39:48;6.28;;;3.53;;
49548;SDS011;35450;44.518;7.466;2022-09-01T18:46:35;7.55;;;3.55;;
49548;SDS011;35450;44.518;7.466;2022-09-01T18:50:13;6.47;;;3.60;;
49548;SDS011;35450;44.518;7.466;2022-09-01T18:53:44;5.68;;;3.00;;
49548;SDS011;35450;44.518;7.466;2022-09-01T18:56:56;7.43;;;2.75;;
49548;SDS011;35450;44.518;7.466;2022-09-01T19:00:13;8.63;;;3.60;;
49548;SDS011;35450;44.518;7.466;2022-09-01T19:03:25;5.93;;;3.65;;
49548;SDS011;35450;44.518;7.466;2022-09-01T19:20:28;9.63;;;3.72;;
49548;SDS011;35450;44.518;7.466;2022-09-01T19:23:52;4.13;;;3.40;;
49548;SDS011;35450;44.518;7.466;2022-09-01T19:27:10;4.38;;;3.15;;
49548;SDS011;35450;44.518;7.466;2022-09-01T19:30:19;4.15;;;3.03;;
49548;SDS011;35450;44.518;7.466;2022-09-01T19:33:25;5.55;;;3.00;;
49548;SDS011;35450;44.518;7.466;2022-09-01T19:39:45;5.38;;;3.05;;
49548;SDS011;35450;44.518;7.466;2022-09-01T19:43:04;5.47;;;2.95;;
49548;SDS011;35450;44.518;7.466;2022-09-01T19:49:31;7.13;;;3.17;;
49548;SDS011;35450;44.518;7.466;2022-09-01T19:52:54;6.30;;;3.50;;
49548;SDS011;35450;44.518;7.466;2022-09-01T19:56:08;10.60;;;3.63;;
49548;SDS011;35450;44.518;7.466;2022-09-01T19:59:24;6.72;;;3.28;;
49548;SDS011;35450;44.518;7.466;2022-09-01T20:02:49;10.07;;;3.35;;
49548;SDS011;35450;44.518;7.466;2022-09-01T20:09:21;5.45;;;3.60;;
49548;SDS011;35450;44.518;7.466;2022-09-01T20:12:31;6.55;;;4.13;;
49548;SDS011;35450;44.518;7.466;2022-09-01T20:15:52;8.15;;;4.00;;
49548;SDS011;35450;44.518;7.466;2022-09-01T20:22:26;10.05;;;4.30;;
49548;SDS011;35450;44.518;7.466;2022-09-01T20:25:54;4.53;;;3.70;;
49548;SDS011;35450;44.518;7.466;2022-09-01T20:29:11;6.75;;;3.60;;
49548;SDS011;35450;44.518;7.466;2022-09-01T20:32:25;4.25;;;3.63;;
49548;SDS011;35450;44.518;7.466;2022-09-01T20:39:51;7.10;;;3.45;;
49548;SDS011;35450;44.518;7.466;2022-09-01T20:43:08;5.55;;;3.45;;
49548;SDS011;35450;44.518;7.466;2022-09-01T20:46:22;6.10;;;3.78;;
49548;SDS011;35450;44.518;7.466;2022-09-01T20:49:28;5.90;;;3.50;;
49548;SDS011;35450;44.518;7.466;2022-09-01T20:55:39;5.18;;;3.38;;
49548;SDS011;35450;44.518;7.466;2022-09-01T20:59:01;5.70;;;3.40;;